This is the latest recevied weather packets stored in our database for station/object SV1BYK-4. If no packets are shown the sender has not sent any weather packets the latest 10 day(s).
| Time | Temp. | Humidity | Pressure | Rain* | Wind** | Luminosity | Snow |
|---|---|---|---|---|---|---|---|
| 1777530096 | 21.11° C | 44% | 1011.3 hPa | 0 mm | - | 0 W/m² | - |
| 1777529556 | 22.22° C | 42% | 1011.2 hPa | 0 mm | - | 0 W/m² | - |
| 1777527396 | 20° C | 46% | 1011.4 hPa | 0 mm | - | 0 W/m² | - |
| 1777522536 | 15.56° C | 58% | 1011.1 hPa | 0 mm | - | 0 W/m² | - |
| 1777517136 | 15° C | 57% | 1010.7 hPa | 0 mm | - | 0 W/m² | - |
| 1777516056 | 15.56° C | 57% | 1010.7 hPa | 0 mm | - | 0 W/m² | - |
| 1777512276 | 16.11° C | 57% | 1011.2 hPa | 0 mm | - | 0 W/m² | - |
| 1777511196 | 16.11° C | 57% | 1011.1 hPa | 0 mm | - | 0 W/m² | - |
| 1777505256 | 17.22° C | 64% | 1011.5 hPa | 0 mm | - | 0 W/m² | - |
| 1777504716 | 17.78° C | 63% | 1011.5 hPa | 0 mm | - | 0 W/m² | - |
| 1777501476 | 18.33° C | 47% | 1011.8 hPa | 0 mm | - | 0 W/m² | - |
| 1777494456 | 19.44° C | 41% | 1012 hPa | 0 mm | - | 0 W/m² | - |
| 1777493916 | 20° C | 41% | 1012 hPa | 0 mm | - | 0 W/m² | - |
| 1777493376 | 20° C | 40% | 1012 hPa | 0 mm | - | 0 W/m² | - |
| 1777492836 | 20° C | 40% | 1012.1 hPa | 0 mm | - | 0 W/m² | - |
| 1777492296 | 20° C | 41% | 1012.1 hPa | 0 mm | - | 0 W/m² | - |
| 1777491756 | 20° C | 42% | 1012.1 hPa | 0 mm | - | 0 W/m² | - |
| 1777486356 | 20.56° C | 45% | 1011.8 hPa | 0 mm | - | 0 W/m² | - |
| 1777483656 | 20.56° C | 46% | 1011.5 hPa | 0 mm | - | 0 W/m² | - |
| 1777483116 | 20.56° C | 46% | 1011.5 hPa | 0 mm | - | 0 W/m² | - |
| 1777476096 | 21.11° C | 50% | 1011.4 hPa | 0 mm | - | 0 W/m² | - |
| 1777468536 | 23.33° C | 41% | 1011.9 hPa | 0 mm | - | 0 W/m² | - |
| 1777466916 | 23.89° C | 39% | 1012.1 hPa | 0 mm | - | 0 W/m² | - |
| 1777465296 | 23.89° C | 41% | 1012.3 hPa | 0 mm | - | 0 W/m² | - |
| 1777464755 | 23.33° C | 42% | 1012.3 hPa | 0 mm | - | 0 W/m² | - |
* Rain latest hour (hover to see other rain measurements)
** Current wind speed in m/s (hover to see current wind gust speed)